Time;durP1;ratioP1;P1;durP2;ratioP2;P2;SDS_P1;SDS_P2;PMS_P1;PMS_P2;Temp;Humidity;BMP_temperature;BMP_pressure;BME280_temperature;BME280_humidity;BME280_pressure;Samples;Min_cycle;Max_cycle;Signal;HPM_P1;HPM_P2
2022/03/10 00:00:06;;;;;;;19.87;11.03;;;-0.50;1.00;;;;;;4902612;29;20047;-96
2022/03/10 00:02:32;;;;;;;19.30;10.90;;;-0.60;1.00;;;;;;4887777;29;20080;-96
2022/03/10 00:04:57;;;;;;;34.43;19.30;;;-0.70;1.00;;;;;;4904114;29;20044;-96
2022/03/10 00:07:23;;;;;;;30.83;17.17;;;-0.70;26.80;;;;;;4887361;29;20153;-91
2022/03/10 00:09:49;;;;;;;24.17;12.20;;;-0.70;57.10;;;;;;4903426;29;20480;-96
2022/03/10 00:12:15;;;;;;;20.83;11.67;;;-0.20;59.40;;;;;;4887071;29;20040;-91
2022/03/10 00:14:41;;;;;;;21.90;11.97;;;-0.70;80.70;;;;;;4887049;29;20048;-96
2022/03/10 00:17:07;;;;;;;21.17;11.53;;;-0.70;97.70;;;;;;4888818;29;20117;-91
2022/03/10 00:19:33;;;;;;;20.87;11.60;;;-0.80;99.90;;;;;;4903296;29;20044;-96
2022/03/10 00:21:59;;;;;;;19.53;10.97;;;-0.60;99.90;;;;;;4886591;29;20138;-96
2022/03/10 00:24:28;;;;;;;20.57;11.07;;;-0.60;99.90;;;;;;4887796;29;20040;-96
2022/03/10 00:26:53;;;;;;;16.27;10.27;;;-0.60;99.90;;;;;;4887503;29;20048;-96
2022/03/10 00:29:22;;;;;;;18.83;10.93;;;-0.60;99.90;;;;;;4886671;29;20059;-96
2022/03/10 00:31:48;;;;;;;18.63;10.33;;;-0.80;99.90;;;;;;4888121;29;20052;-96
2022/03/10 00:34:14;;;;;;;16.10;10.47;;;-0.80;99.90;;;;;;4886154;29;20058;-96
2022/03/10 00:36:40;;;;;;;19.80;11.73;;;-0.80;99.90;;;;;;4886937;29;20127;-90
2022/03/10 00:39:06;;;;;;;18.00;10.63;;;-0.80;99.90;;;;;;4901845;29;20051;-96
2022/03/10 00:41:32;;;;;;;18.40;10.07;;;-0.90;99.90;;;;;;4886415;29;20499;-90
2022/03/10 00:43:58;;;;;;;23.20;11.60;;;-0.90;99.90;;;;;;4886435;29;20055;-91
2022/03/10 00:46:23;;;;;;;16.97;10.37;;;-0.80;99.90;;;;;;4886487;29;20459;-91
2022/03/10 00:48:49;;;;;;;18.93;10.77;;;-0.80;99.90;;;;;;4889718;29;20044;-91
2022/03/10 00:51:15;;;;;;;19.47;10.83;;;-0.90;99.90;;;;;;4886447;29;20036;-96
2022/03/10 00:53:41;;;;;;;18.90;10.57;;;-0.70;99.90;;;;;;4886087;29;20448;-90
2022/03/10 00:56:07;;;;;;;19.30;10.90;;;-0.80;99.90;;;;;;4886334;29;20539;-91
2022/03/10 00:58:32;;;;;;;15.60;10.07;;;-0.80;99.90;;;;;;4886003;29;20091;-90
2022/03/10 01:01:00;;;;;;;16.57;10.20;;;-0.80;99.90;;;;;;4885544;29;20095;-92
2022/03/10 01:03:26;;;;;;;17.80;9.67;;;-0.80;99.90;;;;;;4887803;29;20055;-96
2022/03/10 01:05:52;;;;;;;20.73;11.10;;;-0.70;1.00;;;;;;4886758;29;20052;-96
2022/03/10 01:08:18;;;;;;;21.10;12.43;;;0.20;1.00;;;;;;4886551;29;20086;-96
2022/03/10 01:10:43;;;;;;;21.03;11.50;;;-0.70;1.00;;;;;;4886235;29;20052;-96
2022/03/10 01:13:14;;;;;;;18.17;10.83;;;-0.90;99.90;;;;;;4886945;29;20411;-91
2022/03/10 01:15:41;;;;;;;16.47;10.33;;;-0.90;99.90;;;;;;4886652;29;20044;-90
2022/03/10 01:18:08;;;;;;;17.53;11.37;;;-0.90;99.90;;;;;;4886239;29;20062;-91
2022/03/10 01:20:34;;;;;;;21.40;11.97;;;-1.00;99.90;;;;;;4885900;29;20147;-92
2022/03/10 01:23:00;;;;;;;19.97;11.83;;;-1.00;99.90;;;;;;4886074;29;20092;-91
2022/03/10 01:25:26;;;;;;;17.40;10.83;;;-1.00;99.90;;;;;;4886465;29;20044;-96
2022/03/10 01:27:52;;;;;;;20.27;11.50;;;-1.00;1.00;;;;;;4886736;29;20048;-91
2022/03/10 01:30:18;;;;;;;18.07;11.80;;;-0.70;1.00;;;;;;4902559;29;20065;-96
2022/03/10 01:32:44;;;;;;;18.40;11.40;;;-1.10;1.00;;;;;;4886373;29;20048;-91
2022/03/10 01:35:12;;;;;;;19.40;11.00;;;-1.00;1.00;;;;;;4886332;29;20051;-90
2022/03/10 01:37:38;;;;;;;19.57;11.77;;;-1.00;1.00;;;;;;4885616;29;20096;-96
2022/03/10 01:40:12;;;;;;;18.83;12.03;;;-1.10;1.00;;;;;;4887766;29;20059;-91
2022/03/10 01:42:39;;;;;;;21.07;12.23;;;-1.10;1.00;;;;;;4890765;29;20044;-93
2022/03/10 01:45:05;;;;;;;23.10;11.70;;;-1.10;1.00;;;;;;4891260;29;20044;-90
2022/03/10 01:47:31;;;;;;;19.87;12.20;;;-1.10;1.00;;;;;;4889847;29;20048;-90
2022/03/10 01:49:57;;;;;;;20.17;11.83;;;-1.10;1.00;;;;;;4905412;29;20055;-94
2022/03/10 01:52:23;;;;;;;19.77;11.77;;;-1.10;1.00;;;;;;4905979;29;20222;-91
2022/03/10 01:54:49;;;;;;;17.33;11.57;;;-1.30;1.00;;;;;;4905512;29;20642;-96
2022/03/10 01:57:16;;;;;;;19.73;11.90;;;-1.20;1.00;;;;;;4893754;29;20076;-96
2022/03/10 01:59:42;;;;;;;19.03;12.70;;;-1.30;1.00;;;;;;4890521;29;20472;-96
2022/03/10 02:02:09;;;;;;;19.93;11.97;;;-1.30;1.00;;;;;;4890189;29;20221;-91
2022/03/10 02:04:34;;;;;;;18.37;12.03;;;-1.20;1.00;;;;;;4904401;29;20131;-90
2022/03/10 02:07:05;;;;;;;19.33;12.00;;;-1.30;1.00;;;;;;4890056;29;20131;-90
2022/03/10 02:12:17;;;;;;;18.50;11.80;;;-1.10;1.00;;;;;;4904664;29;20480;-91
2022/03/10 02:17:35;;;;;;;22.97;12.70;;;-1.00;1.00;;;;;;4887105;29;20083;-96
2022/03/10 02:20:01;;;;;;;21.53;13.20;;;-1.10;1.00;;;;;;4905438;29;20040;-96
2022/03/10 02:22:27;;;;;;;16.60;11.00;;;-1.00;10.30;;;;;;4908682;29;20084;-96
2022/03/10 02:24:54;;;;;;;20.53;11.63;;;-1.10;1.00;;;;;;4890357;29;20044;-96
2022/03/10 02:27:25;;;;;;;20.63;11.83;;;-0.90;4.90;;;;;;4905390;29;20079;-90
2022/03/10 02:29:53;;;;;;;19.63;11.30;;;-1.10;1.00;;;;;;4890123;29;20103;-90
2022/03/10 02:32:21;;;;;;;23.07;11.77;;;-1.10;1.00;;;;;;4889163;29;20040;-96
2022/03/10 02:34:47;;;;;;;19.07;11.50;;;-1.20;1.00;;;;;;4889848;29;20051;-91
2022/03/10 02:37:14;;;;;;;21.17;11.87;;;-1.00;1.00;;;;;;4889894;29;20139;-93
2022/03/10 02:39:41;;;;;;;20.70;11.50;;;-1.20;1.00;;;;;;4892060;29;20182;-96
2022/03/10 02:42:08;;;;;;;21.53;12.80;;;-1.20;20.40;;;;;;4888775;29;20064;-90
2022/03/10 02:44:38;;;;;;;18.80;11.63;;;-1.20;1.00;;;;;;4905093;29;20044;-96
2022/03/10 02:47:04;;;;;;;20.60;12.70;;;-1.20;1.00;;;;;;4905316;29;20051;-90
2022/03/10 02:49:30;;;;;;;21.53;12.10;;;-1.10;1.00;;;;;;4889205;29;20052;-90
2022/03/10 02:51:56;;;;;;;20.23;12.77;;;-1.40;1.00;;;;;;4888776;29;20086;-90
2022/03/10 02:54:23;;;;;;;18.70;11.97;;;-1.30;1.00;;;;;;4905838;29;20044;-91
2022/03/10 02:56:49;;;;;;;23.03;13.07;;;-1.50;1.00;;;;;;4890109;29;20113;-96
2022/03/10 02:59:15;;;;;;;19.73;11.90;;;-1.30;1.00;;;;;;4888492;29;20499;-96
2022/03/10 03:01:41;;;;;;;21.40;13.33;;;-1.90;1.00;;;;;;4888664;29;20052;-91
2022/03/10 03:04:07;;;;;;;18.63;12.13;;;-1.50;1.00;;;;;;4906031;29;20115;-96
2022/03/10 03:06:37;;;;;;;23.77;13.17;;;-1.60;1.00;;;;;;4889682;29;20083;-96
2022/03/10 03:09:03;;;;;;;23.00;13.00;;;-1.60;1.00;;;;;;4890727;29;20188;-90
2022/03/10 03:11:29;;;;;;;24.97;12.60;;;-1.60;1.00;;;;;;4890430;29;20055;-90
2022/03/10 03:13:56;;;;;;;21.83;12.63;;;-1.00;1.00;;;;;;4905718;29;20052;-90
2022/03/10 03:16:25;;;;;;;21.40;13.00;;;-1.60;7.60;;;;;;4903966;29;20579;-90
2022/03/10 03:18:51;;;;;;;25.33;13.47;;;-1.10;1.00;;;;;;4888874;29;20504;-96
2022/03/10 03:21:18;;;;;;;20.67;12.93;;;-1.60;5.50;;;;;;4889294;29;20312;-90
2022/03/10 03:23:44;;;;;;;21.43;12.53;;;-1.70;1.00;;;;;;4893138;29;20052;-96
2022/03/10 03:26:10;;;;;;;24.03;13.20;;;-0.90;1.00;;;;;;4892353;29;20510;-96
2022/03/10 03:28:36;;;;;;;21.97;14.00;;;-1.50;1.00;;;;;;4889953;29;20048;-95
2022/03/10 03:31:03;;;;;;;21.37;12.63;;;-1.80;21.20;;;;;;4888547;29;20131;-89
2022/03/10 03:33:30;;;;;;;19.80;11.93;;;-1.80;36.70;;;;;;4889355;29;20044;-96
2022/03/10 03:35:57;;;;;;;21.67;13.77;;;-1.80;19.50;;;;;;4891616;29;20048;-90
2022/03/10 03:38:23;;;;;;;25.83;12.87;;;-1.90;34.70;;;;;;4889339;29;20048;-95
2022/03/10 03:40:48;;;;;;;20.60;13.23;;;-1.40;73.00;;;;;;4888399;29;20511;-90
2022/03/10 03:43:15;;;;;;;21.53;13.03;;;-1.90;49.70;;;;;;4888851;29;20056;-90
2022/03/10 03:45:43;;;;;;;24.57;14.10;;;-1.80;95.20;;;;;;4887511;29;20111;-96
2022/03/10 03:48:09;;;;;;;20.50;13.23;;;-1.80;99.90;;;;;;4887846;29;20048;-90
2022/03/10 03:50:36;;;;;;;24.20;12.80;;;-1.70;99.90;;;;;;4888727;29;20062;-96
2022/03/10 03:53:02;;;;;;;19.83;12.97;;;-1.70;99.90;;;;;;4889443;29;20052;-90
2022/03/10 03:55:28;;;;;;;21.47;13.03;;;-1.70;99.90;;;;;;4888003;29;20058;-90
2022/03/10 03:57:53;;;;;;;18.37;11.87;;;-1.70;87.30;;;;;;4887736;29;20106;-90
2022/03/10 04:00:19;;;;;;;24.37;13.33;;;-1.70;99.90;;;;;;4904447;29;20112;-96
2022/03/10 04:02:46;;;;;;;22.33;13.17;;;-1.60;99.90;;;;;;4902627;29;20055;-96
2022/03/10 04:05:12;;;;;;;26.33;14.43;;;-1.70;97.60;;;;;;4888639;29;20079;-90
2022/03/10 04:07:38;;;;;;;20.20;13.23;;;-1.50;99.90;;;;;;4887451;29;20174;-90
2022/03/10 04:10:06;;;;;;;21.97;13.03;;;-1.60;98.10;;;;;;4888589;29;20090;-90
2022/03/10 04:12:33;;;;;;;23.23;13.10;;;-1.60;99.90;;;;;;4888694;29;20047;-90
2022/03/10 04:14:59;;;;;;;20.03;13.80;;;-1.50;99.90;;;;;;4887887;29;20076;-90
2022/03/10 04:17:25;;;;;;;20.97;12.70;;;-1.50;99.90;;;;;;4888186;29;20483;-90
2022/03/10 04:19:51;;;;;;;20.37;12.50;;;-1.50;95.80;;;;;;4903431;29;20492;-96
2022/03/10 04:22:17;;;;;;;21.17;12.87;;;-1.50;76.70;;;;;;4886877;29;20131;-91
2022/03/10 04:24:57;;;;;;;20.37;12.83;;;-1.50;68.70;;;;;;5115169;27;20396;-89
2022/03/10 04:27:23;;;;;;;20.60;12.40;;;-1.60;45.70;;;;;;5062365;28;20082;-89
2022/03/10 04:29:48;;;;;;;18.53;11.97;;;-1.50;45.70;;;;;;5095520;28;20047;-94
2022/03/10 04:32:15;;;;;;;20.20;12.57;;;-1.50;30.50;;;;;;5080440;28;20493;-93
2022/03/10 04:34:44;;;;;;;22.93;12.63;;;-1.50;55.00;;;;;;5096073;28;20093;-90
2022/03/10 04:37:10;;;;;;;24.13;13.17;;;-1.40;51.90;;;;;;5095958;28;20447;-95
2022/03/10 04:39:36;;;;;;;25.67;13.93;;;-1.40;35.70;;;;;;5079309;28;20048;-90
2022/03/10 04:42:02;;;;;;;21.60;12.40;;;-1.40;35.00;;;;;;5095485;28;20036;-95
2022/03/10 04:44:28;;;;;;;19.57;11.80;;;-1.40;22.10;;;;;;5079466;28;20048;-90
2022/03/10 04:46:53;;;;;;;21.67;12.87;;;-1.40;17.30;;;;;;5078383;28;20118;-90
2022/03/10 04:49:19;;;;;;;23.47;11.60;;;-1.40;13.20;;;;;;5078741;28;20040;-90
2022/03/10 04:51:45;;;;;;;37.70;12.57;;;-1.50;12.80;;;;;;5080909;28;20077;-89
2022/03/10 04:54:11;;;;;;;20.63;12.20;;;-1.40;10.10;;;;;;5079093;28;20465;-96
2022/03/10 04:56:37;;;;;;;20.17;12.53;;;-1.40;10.30;;;;;;5079288;28;20046;-89
2022/03/10 04:59:03;;;;;;;20.57;12.50;;;-1.50;4.20;;;;;;5094889;28;20482;-89
2022/03/10 05:01:29;;;;;;;20.30;11.83;;;-1.50;20.70;;;;;;5079527;28;20039;-90
2022/03/10 05:03:55;;;;;;;20.37;11.93;;;-1.50;33.30;;;;;;5095304;28;20073;-92
2022/03/10 05:06:22;;;;;;;20.80;13.17;;;-1.50;9.10;;;;;;5080085;28;20189;-90
2022/03/10 05:08:49;;;;;;;21.73;12.27;;;-1.50;5.00;;;;;;5078660;28;20097;-95
2022/03/10 05:11:15;;;;;;;21.13;12.40;;;-1.50;17.50;;;;;;5096235;28;20482;-95
2022/03/10 05:13:41;;;;;;;20.37;12.67;;;-1.40;16.70;;;;;;5094944;28;20133;-89
2022/03/10 05:16:09;;;;;;;19.20;11.57;;;-1.50;15.10;;;;;;5078158;28;20458;-96
2022/03/10 05:18:36;;;;;;;20.33;11.67;;;-1.50;15.00;;;;;;5097324;28;20044;-95
2022/03/10 05:21:02;;;;;;;21.13;12.30;;;-1.50;3.30;;;;;;5095495;28;20105;-89
2022/03/10 05:23:32;;;;;;;20.67;12.00;;;-1.20;1.00;;;;;;5095205;28;20063;-95
2022/03/10 05:25:58;;;;;;;23.87;12.03;;;-1.50;1.00;;;;;;5095385;28;20062;-95
2022/03/10 05:28:23;;;;;;;23.23;12.87;;;-1.60;1.00;;;;;;5078439;28;20044;-89
2022/03/10 05:30:49;;;;;;;21.97;12.90;;;-1.60;7.50;;;;;;5096606;28;20138;-95
2022/03/10 05:33:15;;;;;;;18.90;11.10;;;-1.50;10.70;;;;;;5097362;28;20044;-89
2022/03/10 05:35:44;;;;;;;25.63;11.67;;;-1.50;16.30;;;;;;5066848;28;20524;-96
2022/03/10 05:38:10;;;;;;;19.17;11.83;;;-1.60;5.40;;;;;;5080478;28;20040;-95
2022/03/10 05:40:36;;;;;;;21.43;12.77;;;-1.60;14.80;;;;;;5064243;28;20440;-95
2022/03/10 05:43:03;;;;;;;21.70;11.87;;;-1.60;1.00;;;;;;5080307;28;20154;-95
2022/03/10 05:45:29;;;;;;;19.97;12.50;;;-1.60;13.50;;;;;;5083605;28;20130;-95
2022/03/10 05:47:56;;;;;;;18.27;11.83;;;-1.60;16.50;;;;;;5080591;28;20458;-96
2022/03/10 05:50:24;;;;;;;18.83;11.43;;;-1.40;29.30;;;;;;5097341;28;20417;-94
2022/03/10 05:52:50;;;;;;;23.80;11.37;;;-1.50;8.50;;;;;;5079799;28;20074;-90
2022/03/10 05:55:20;;;;;;;18.43;11.23;;;-1.50;13.50;;;;;;5065104;28;20044;-95
2022/03/10 05:57:49;;;;;;;18.60;10.20;;;-1.40;13.70;;;;;;5098864;28;20044;-96
2022/03/10 06:00:16;;;;;;;22.10;11.20;;;-1.40;12.90;;;;;;5081899;28;20036;-91
2022/03/10 06:02:42;;;;;;;18.50;10.43;;;-1.40;20.30;;;;;;5063436;28;20096;-95
2022/03/10 06:05:08;;;;;;;18.57;10.67;;;-1.30;25.00;;;;;;5079960;28;20055;-94
2022/03/10 06:07:34;;;;;;;18.43;10.30;;;-1.30;15.00;;;;;;5065151;28;20103;-90
2022/03/10 06:10:00;;;;;;;23.30;11.27;;;-1.10;1.00;;;;;;5078701;28;20071;-90
2022/03/10 06:12:27;;;;;;;18.83;10.60;;;-1.20;1.00;;;;;;5078543;28;20040;-90
2022/03/10 06:14:54;;;;;;;19.03;10.83;;;-1.10;1.00;;;;;;5099730;28;20074;-89
2022/03/10 06:17:20;;;;;;;17.20;10.50;;;-1.10;1.00;;;;;;5062346;28;20051;-95
2022/03/10 06:19:47;;;;;;;18.03;11.40;;;-1.10;1.00;;;;;;5063959;28;20078;-94
2022/03/10 06:22:26;;;;;;;18.00;10.87;;;-1.10;1.00;;;;;;5079376;28;20131;-90
2022/03/10 06:24:55;;;;;;;23.13;10.63;;;-1.00;1.00;;;;;;5079091;28;20132;-95
2022/03/10 06:27:23;;;;;;;17.70;11.37;;;-0.50;1.00;;;;;;5082723;28;20048;-90
2022/03/10 06:29:50;;;;;;;20.07;11.50;;;-1.10;1.00;;;;;;5079571;28;20044;-95
2022/03/10 06:32:17;;;;;;;17.97;11.00;;;-1.00;1.00;;;;;;5079930;28;20486;-90
2022/03/10 06:34:44;;;;;;;14.70;10.13;;;-0.90;1.00;;;;;;5079279;28;20072;-90
2022/03/10 06:37:09;;;;;;;16.77;10.37;;;-1.00;1.00;;;;;;5078967;28;20047;-91
2022/03/10 06:39:36;;;;;;;19.80;10.73;;;-0.90;1.00;;;;;;5078827;28;20478;-89
2022/03/10 06:42:05;;;;;;;19.13;10.67;;;-0.90;1.00;;;;;;5077473;28;20047;-90
2022/03/10 06:44:35;;;;;;;17.80;11.13;;;-0.80;1.00;;;;;;5085198;28;20040;-95
2022/03/10 06:47:09;;;;;;;19.45;10.80;;;-0.80;1.00;;;;;;5084176;28;20047;-90
2022/03/10 06:49:35;;;;;;;19.13;10.93;;;-0.80;1.00;;;;;;5081677;28;20131;-89
2022/03/10 06:52:03;;;;;;;18.23;11.50;;;-0.50;1.00;;;;;;5081511;28;20046;-95
2022/03/10 06:54:28;;;;;;;20.03;11.43;;;-0.70;1.00;;;;;;5077627;28;20043;-95
2022/03/10 06:56:54;;;;;;;21.23;11.07;;;-0.70;1.00;;;;;;5062077;28;20506;-94
2022/03/10 06:59:20;;;;;;;23.30;12.00;;;-0.70;1.00;;;;;;5078174;28;20040;-90
2022/03/10 07:01:46;;;;;;;21.57;11.50;;;-0.70;1.00;;;;;;5060739;28;20437;-89
2022/03/10 07:04:12;;;;;;;18.47;11.10;;;-0.70;1.00;;;;;;5060602;28;20521;-95
2022/03/10 07:06:38;;;;;;;19.87;10.70;;;-0.70;1.00;;;;;;5076852;28;20494;-89
2022/03/10 07:09:04;;;;;;;20.03;11.03;;;-0.70;1.00;;;;;;5060392;28;20078;-95
2022/03/10 07:11:30;;;;;;;18.13;11.47;;;-0.70;1.00;;;;;;5062271;28;20076;-90
2022/03/10 07:13:56;;;;;;;17.23;11.57;;;-0.60;1.00;;;;;;5061285;28;20147;-95
2022/03/10 07:16:22;;;;;;;18.67;11.67;;;-0.50;1.00;;;;;;5061462;28;20044;-96
2022/03/10 07:18:50;;;;;;;18.83;11.70;;;-0.40;1.00;;;;;;5077076;28;20040;-95
2022/03/10 07:21:22;;;;;;;18.73;10.93;;;-0.40;1.00;;;;;;5062447;28;20047;-92
2022/03/10 07:23:50;;;;;;;17.17;9.97;;;-0.30;1.00;;;;;;5076718;28;20075;-89
2022/03/10 07:26:16;;;;;;;20.63;12.40;;;-0.10;1.00;;;;;;5076900;28;20048;-95
2022/03/10 07:28:43;;;;;;;17.47;11.50;;;0.10;1.00;;;;;;5076623;28;20040;-94
2022/03/10 07:31:09;;;;;;;17.67;11.33;;;0.60;1.00;;;;;;5077296;28;20044;-91
2022/03/10 07:33:35;;;;;;;18.50;11.87;;;0.40;1.00;;;;;;5076504;28;20048;-89
2022/03/10 07:36:01;;;;;;;19.70;11.60;;;0.70;1.00;;;;;;5076703;28;20040;-94
2022/03/10 07:38:27;;;;;;;20.17;11.90;;;0.60;1.00;;;;;;5059666;28;20043;-95
2022/03/10 07:40:54;;;;;;;20.17;12.67;;;0.70;1.00;;;;;;5076271;28;20044;-90
2022/03/10 07:43:20;;;;;;;17.30;11.53;;;0.80;1.00;;;;;;5059868;28;20043;-96
2022/03/10 07:45:46;;;;;;;21.40;12.53;;;1.00;1.00;;;;;;5059963;28;20089;-90
2022/03/10 07:48:12;;;;;;;20.43;10.53;;;1.20;1.00;;;;;;5076972;28;20093;-91
2022/03/10 07:50:37;;;;;;;20.30;11.97;;;1.30;1.00;;;;;;5059553;28;20096;-91
2022/03/10 07:53:04;;;;;;;21.83;11.67;;;1.40;1.00;;;;;;5059611;28;20047;-92
2022/03/10 07:55:30;;;;;;;20.13;11.80;;;1.50;1.00;;;;;;5059485;28;20051;-91
2022/03/10 07:57:56;;;;;;;21.27;12.17;;;1.60;1.00;;;;;;5075966;28;20040;-90
2022/03/10 08:00:22;;;;;;;17.93;11.57;;;1.80;1.00;;;;;;5059987;28;20493;-94
2022/03/10 08:02:47;;;;;;;19.50;11.33;;;1.90;99.90;;;;;;5061001;28;20044;-91
2022/03/10 08:05:13;;;;;;;20.27;12.47;;;2.10;99.90;;;;;;5076223;28;20040;-91
2022/03/10 08:07:39;;;;;;;22.90;13.00;;;2.20;99.90;;;;;;5059025;28;20059;-94
2022/03/10 08:10:06;;;;;;;17.37;11.23;;;2.30;99.90;;;;;;5059291;28;20048;-93
2022/03/10 08:12:33;;;;;;;17.93;11.67;;;2.40;99.90;;;;;;5059328;28;20047;-92
2022/03/10 08:15:00;;;;;;;17.83;10.30;;;2.60;99.90;;;;;;5076080;28;20050;-91
2022/03/10 08:17:26;;;;;;;21.53;11.27;;;2.60;99.90;;;;;;5075814;28;20047;-91
2022/03/10 08:19:53;;;;;;;17.77;10.83;;;2.70;99.90;;;;;;5059779;28;20102;-92
2022/03/10 08:22:21;;;;;;;18.13;11.37;;;2.90;99.90;;;;;;5075963;28;20553;-91
2022/03/10 08:24:47;;;;;;;20.30;11.23;;;3.00;99.90;;;;;;5075416;28;20102;-91
2022/03/10 08:27:17;;;;;;;19.13;13.00;;;3.40;99.90;;;;;;5075726;28;20040;-92
2022/03/10 08:29:44;;;;;;;19.30;11.60;;;3.20;99.90;;;;;;5076409;28;20044;-92
2022/03/10 08:32:10;;;;;;;17.23;11.57;;;3.40;99.90;;;;;;5060524;28;20044;-92
2022/03/10 08:34:37;;;;;;;18.63;11.40;;;3.70;99.90;;;;;;5076747;28;20047;-94
2022/03/10 08:37:03;;;;;;;17.50;10.90;;;3.60;99.90;;;;;;5059436;28;20041;-93
2022/03/10 08:39:29;;;;;;;17.27;11.30;;;3.70;99.90;;;;;;5059359;28;20044;-92
2022/03/10 08:41:54;;;;;;;17.60;11.87;;;3.90;99.90;;;;;;5059065;28;20040;-94
2022/03/10 08:44:21;;;;;;;20.57;10.93;;;4.00;99.90;;;;;;5059161;28;20048;-94
2022/03/10 08:46:47;;;;;;;22.33;12.20;;;4.20;99.90;;;;;;5076029;28;20066;-92
2022/03/10 08:49:14;;;;;;;18.17;10.20;;;4.50;99.90;;;;;;5076436;28;20044;-92
2022/03/10 08:51:40;;;;;;;16.80;11.23;;;4.40;99.90;;;;;;5075638;28;20048;-93
2022/03/10 08:54:06;;;;;;;19.53;11.50;;;4.50;43.20;;;;;;5058986;28;20074;-96
2022/03/10 08:56:34;;;;;;;19.27;11.07;;;4.70;55.60;;;;;;5059189;28;20044;-93
2022/03/10 08:58:59;;;;;;;19.03;11.87;;;4.90;23.80;;;;;;5059148;28;20036;-93
2022/03/10 09:01:25;;;;;;;18.33;10.43;;;5.10;1.00;;;;;;5058767;28;20048;-94
2022/03/10 09:03:51;;;;;;;18.95;11.25;;;5.40;1.00;;;;;;5076480;28;20075;-93
2022/03/10 09:06:17;;;;;;;17.08;11.32;;;5.40;1.00;;;;;;5075667;28;20083;-92
2022/03/10 09:08:45;;;;;;;15.10;10.63;;;5.60;1.00;;;;;;5075644;28;20099;-95
2022/03/10 09:11:11;;;;;;;17.80;11.70;;;5.80;99.90;;;;;;5078866;28;20044;-91
2022/03/10 09:13:37;;;;;;;17.33;10.82;;;6.20;1.00;;;;;;5079295;28;20068;-95
2022/03/10 09:16:05;;;;;;;14.68;10.63;;;6.10;99.90;;;;;;5062711;28;20109;-92
2022/03/10 09:18:31;;;;;;;19.23;11.35;;;6.30;99.90;;;;;;5063409;28;20181;-93
2022/03/10 09:20:57;;;;;;;21.42;12.02;;;6.40;99.90;;;;;;5063281;28;20101;-91
2022/03/10 09:23:23;;;;;;;21.40;11.85;;;6.60;99.90;;;;;;5062265;28;20066;-94
2022/03/10 09:25:48;;;;;;;20.67;11.48;;;6.80;99.90;;;;;;5062840;28;20074;-94
2022/03/10 09:28:14;;;;;;;15.57;10.25;;;7.00;99.90;;;;;;5063372;28;20051;-91
2022/03/10 09:30:40;;;;;;;19.10;11.07;;;7.10;99.90;;;;;;5062564;28;20046;-94
2022/03/10 09:33:08;;;;;;;18.08;11.38;;;7.30;99.90;;;;;;5079135;28;20135;-95
2022/03/10 09:35:34;;;;;;;18.77;11.95;;;7.40;99.90;;;;;;5063208;28;20127;-94
2022/03/10 09:38:00;;;;;;;21.30;12.38;;;7.50;99.90;;;;;;5062592;28;20085;-95
2022/03/10 09:40:26;;;;;;;19.95;11.27;;;7.70;99.90;;;;;;5079141;28;20078;-91
2022/03/10 09:42:52;;;;;;;16.88;11.50;;;7.80;99.90;;;;;;5062327;28;20431;-92
2022/03/10 09:45:18;;;;;;;16.80;11.50;;;8.00;91.90;;;;;;5062722;28;20050;-92
2022/03/10 09:47:44;;;;;;;16.73;11.07;;;8.10;99.90;;;;;;5080667;28;20094;-95
2022/03/10 09:50:13;;;;;;;22.65;12.05;;;8.20;70.80;;;;;;5062195;28;20040;-94
2022/03/10 09:52:41;;;;;;;18.70;11.77;;;8.30;51.90;;;;;;5078542;28;20051;-92
2022/03/10 09:55:08;;;;;;;18.63;12.23;;;8.50;12.30;;;;;;5062315;28;20040;-92
2022/03/10 09:57:39;;;;;;;21.00;12.93;;;8.60;1.00;;;;;;5078806;28;20048;-95
2022/03/10 10:00:06;;;;;;;21.33;10.85;;;8.70;1.00;;;;;;5078474;28;20505;-93
2022/03/10 10:02:32;;;;;;;18.25;11.43;;;8.80;1.00;;;;;;5079352;28;20429;-95
2022/03/10 10:04:58;;;;;;;21.25;11.93;;;9.00;1.00;;;;;;5061832;28;20101;-92
2022/03/10 10:07:27;;;;;;;20.65;12.30;;;9.10;1.00;;;;;;5061576;28;20048;-94
2022/03/10 10:09:56;;;;;;;19.48;11.75;;;9.30;1.00;;;;;;5061830;28;20126;-92
2022/03/10 10:12:31;;;;;;;18.83;11.77;;;9.40;1.00;;;;;;5061943;28;20044;-94
2022/03/10 10:15:00;;;;;;;16.60;12.10;;;9.90;1.00;;;;;;5062024;28;20510;-95
2022/03/10 10:17:31;;;;;;;17.73;11.63;;;10.90;1.00;;;;;;5062420;28;20050;-95
2022/03/10 10:19:59;;;;;;;17.38;12.55;;;12.00;1.00;;;;;;5078859;28;20390;-92
2022/03/10 10:22:27;;;;;;;21.80;13.13;;;12.90;1.00;;;;;;5078068;28;20443;-93
2022/03/10 10:24:58;;;;;;;20.13;13.40;;;13.60;1.00;;;;;;5078287;28;20143;-92
2022/03/10 10:27:29;;;;;;;22.25;15.27;;;14.10;1.00;;;;;;5078109;28;20048;-94
2022/03/10 10:29:58;;;;;;;32.53;22.10;;;14.50;1.00;;;;;;5078052;28;20483;-95
2022/03/10 10:32:43;;;;;;;16.65;12.02;;;14.60;1.00;;;;;;5078600;28;20079;-95
2022/03/10 10:35:20;;;;;;;19.35;12.48;;;15.00;1.00;;;;;;5078655;28;20085;-95
2022/03/10 10:37:49;;;;;;;22.20;13.52;;;15.40;1.00;;;;;;5077596;28;20102;-95
2022/03/10 10:40:28;;;;;;;21.05;13.25;;;15.70;1.00;;;;;;5077991;28;20086;-93
2022/03/10 10:42:56;;;;;;;32.15;19.85;;;16.00;1.00;;;;;;5077503;28;20376;-94
2022/03/10 10:45:36;;;;;;;25.40;14.10;;;16.20;1.00;;;;;;5078560;28;20411;-92
2022/03/10 10:48:05;;;;;;;20.05;12.85;;;16.30;1.00;;;;;;5078368;28;20547;-95
2022/03/10 10:50:36;;;;;;;45.17;27.50;;;16.30;1.00;;;;;;5077500;28;20048;-94
2022/03/10 10:53:04;;;;;;;22.52;15.07;;;16.60;1.00;;;;;;5077896;28;20518;-95
2022/03/10 10:55:41;;;;;;;22.00;14.43;;;16.70;1.00;;;;;;5060947;28;20083;-95
2022/03/10 10:58:13;;;;;;;18.27;12.85;;;16.80;1.00;;;;;;5061230;28;20040;-96
2022/03/10 11:00:46;;;;;;;18.98;12.60;;;17.00;1.00;;;;;;5062442;28;20040;-94
2022/03/10 11:03:26;;;;;;;26.02;17.00;;;17.10;1.00;;;;;;5077480;28;20505;-94
2022/03/10 11:05:54;;;;;;;91.93;60.28;;;17.10;1.00;;;;;;5060473;28;20052;-95
2022/03/10 11:08:22;;;;;;;31.92;22.77;;;17.20;1.00;;;;;;5061065;28;20086;-93
2022/03/10 11:10:48;;;;;;;34.00;24.95;;;17.10;1.00;;;;;;5076874;28;20044;-93
2022/03/10 11:13:14;;;;;;;21.20;14.52;;;17.20;1.00;;;;;;5060694;28;20429;-93
2022/03/10 11:15:43;;;;;;;20.63;14.10;;;17.40;1.00;;;;;;5061265;28;20074;-96
2022/03/10 11:18:12;;;;;;;15.30;12.90;;;17.40;1.00;;;;;;5060206;28;20104;-94
2022/03/10 11:20:47;;;;;;;17.90;13.15;;;17.50;1.00;;;;;;5093650;28;20066;-94
2022/03/10 11:23:34;;;;;;;16.75;12.57;;;17.70;1.00;;;;;;5076696;28;20630;-93
2022/03/10 11:26:19;;;;;;;17.13;12.60;;;18.00;1.00;;;;;;5076731;28;20047;-94
2022/03/10 11:28:47;;;;;;;17.30;12.85;;;18.30;1.00;;;;;;5077836;28;20213;-92
2022/03/10 11:31:14;;;;;;;16.63;12.95;;;18.40;1.00;;;;;;5077103;28;20048;-95
2022/03/10 11:33:40;;;;;;;16.45;13.23;;;18.70;1.00;;;;;;5059954;28;20132;-93
2022/03/10 11:36:30;;;;;;;19.60;13.00;;;18.60;1.00;;;;;;5060554;28;20052;-94
2022/03/10 11:39:07;;;;;;;15.73;12.50;;;18.50;1.00;;;;;;5076866;28;20043;-94
2022/03/10 11:41:53;;;;;;;19.52;13.57;;;18.30;1.00;;;;;;5076742;28;20130;-92
2022/03/10 11:44:23;;;;;;;17.75;13.57;;;18.50;1.00;;;;;;5079326;28;20068;-95
2022/03/10 11:46:54;;;;;;;21.35;14.38;;;18.60;1.00;;;;;;5060016;28;20108;-93
2022/03/10 11:49:20;;;;;;;16.60;13.77;;;18.60;1.00;;;;;;5077072;28;20040;-93
2022/03/10 11:51:57;;;;;;;16.92;13.35;;;18.70;1.00;;;;;;5076569;28;20055;-94
2022/03/10 11:54:27;;;;;;;19.38;12.98;;;18.80;1.00;;;;;;5060102;28;20075;-94
2022/03/10 11:56:54;;;;;;;19.50;13.45;;;18.80;1.00;;;;;;5076398;28;20051;-93
2022/03/10 11:59:24;;;;;;;17.38;13.25;;;18.90;1.00;;;;;;5078918;28;20044;-94
2022/03/10 12:01:51;;;;;;;16.60;13.05;;;19.20;1.00;;;;;;5093053;28;20047;-95
2022/03/10 12:04:22;;;;;;;18.08;12.70;;;19.20;1.00;;;;;;5059910;28;20139;-94
2022/03/10 12:06:53;;;;;;;14.95;13.23;;;19.20;1.00;;;;;;5093390;28;20046;-94
2022/03/10 12:09:36;;;;;;;15.43;12.38;;;19.30;1.00;;;;;;5060714;28;20040;-93
2022/03/10 12:12:21;;;;;;;18.13;14.00;;;19.30;1.00;;;;;;5076721;28;20109;-93
2022/03/10 12:14:47;;;;;;;16.40;13.25;;;19.00;1.00;;;;;;5077939;28;20044;-94
2022/03/10 12:17:42;;;;;;;18.65;13.65;;;19.10;1.00;;;;;;5093019;28;20044;-94
2022/03/10 12:20:14;;;;;;;18.98;13.60;;;19.10;1.00;;;;;;5067247;28;20447;-94
2022/03/10 12:22:39;;;;;;;17.58;13.18;;;19.20;1.00;;;;;;5076037;28;20048;-94
2022/03/10 12:25:20;;;;;;;18.23;14.30;;;19.20;1.00;;;;;;5076125;28;20113;-94
2022/03/10 12:27:53;;;;;;;21.10;14.32;;;19.10;1.00;;;;;;5061264;28;20505;-95
2022/03/10 12:30:25;;;;;;;17.88;13.80;;;19.10;1.00;;;;;;5076218;28;20093;-92
2022/03/10 12:32:53;;;;;;;18.65;13.68;;;19.10;1.00;;;;;;5076242;28;20040;-96
2022/03/10 12:35:41;;;;;;;21.48;14.18;;;18.90;1.00;;;;;;5075961;28;20036;-95
2022/03/10 12:38:07;;;;;;;18.67;14.68;;;18.70;1.00;;;;;;5076146;28;20134;-94
2022/03/10 12:40:35;;;;;;;17.55;14.20;;;18.70;1.00;;;;;;5059883;28;20506;-94
2022/03/10 12:43:03;;;;;;;17.65;14.02;;;18.70;1.00;;;;;;5077103;28;20127;-94